createdAt,value
2023-01-10T00:01:40.987Z,100.00
2023-01-10T00:04:07.720Z,100.00
2023-01-10T00:06:34.454Z,100.00
2023-01-10T00:09:01.208Z,100.00
2023-01-10T00:11:46.611Z,100.00
2023-01-10T00:14:13.417Z,100.00
2023-01-10T00:16:42.586Z,100.00
2023-01-10T00:19:10.575Z,100.00
2023-01-10T00:21:39.445Z,100.00
2023-01-10T00:24:23.392Z,100.00
2023-01-10T00:26:51.620Z,100.00
2023-01-10T00:29:27.667Z,100.00
2023-01-10T00:31:54.890Z,100.00
2023-01-10T00:34:21.778Z,100.00
2023-01-10T00:36:48.736Z,100.00
2023-01-10T00:39:18.992Z,100.00
2023-01-10T00:42:04.439Z,100.00
2023-01-10T00:44:31.358Z,100.00
2023-01-10T00:46:58.082Z,100.00
2023-01-10T00:49:24.745Z,100.00
2023-01-10T00:51:51.455Z,100.00
2023-01-10T00:54:18.163Z,100.00
2023-01-10T00:56:44.845Z,100.00
2023-01-10T00:59:11.599Z,100.00
2023-01-10T01:01:38.433Z,100.00
2023-01-10T01:04:05.364Z,100.00
2023-01-10T01:06:32.065Z,100.00
2023-01-10T01:08:59.113Z,100.00
2023-01-10T01:11:26.195Z,100.00
2023-01-10T01:13:53.092Z,100.00
2023-01-10T01:16:20.027Z,100.00
2023-01-10T01:18:46.962Z,100.00
2023-01-10T01:21:13.794Z,100.00
2023-01-10T01:23:40.585Z,100.00
2023-01-10T01:26:07.311Z,100.00
2023-01-10T01:28:33.988Z,100.00
2023-01-10T01:31:07.537Z,100.00
2023-01-10T01:33:34.659Z,100.00
2023-01-10T01:36:01.394Z,100.00
2023-01-10T01:38:28.169Z,100.00
2023-01-10T01:40:54.882Z,100.00
2023-01-10T01:43:27.070Z,100.00
2023-01-10T01:45:57.327Z,100.00
2023-01-10T01:48:41.014Z,100.00
2023-01-10T01:51:18.774Z,100.00
2023-01-10T01:54:03.577Z,100.00
2023-01-10T01:56:42.828Z,100.00
2023-01-10T01:59:15.849Z,100.00
2023-01-10T02:01:45.669Z,100.00
2023-01-10T02:04:27.020Z,100.00
2023-01-10T02:06:56.852Z,100.00
2023-01-10T02:09:48.748Z,100.00
2023-01-10T02:12:15.813Z,100.00
2023-01-10T02:14:44.931Z,100.00
2023-01-10T02:17:11.894Z,100.00
2023-01-10T02:20:01.424Z,100.00
2023-01-10T02:22:52.675Z,100.00
2023-01-10T02:25:50.447Z,100.00
2023-01-10T02:28:23.269Z,100.00
2023-01-10T02:31:19.673Z,100.00
2023-01-10T02:33:49.183Z,100.00
2023-01-10T02:36:24.995Z,100.00
2023-01-10T02:39:02.263Z,100.00
2023-01-10T02:41:42.022Z,100.00
2023-01-10T02:44:21.903Z,100.00
2023-01-10T02:46:49.208Z,100.00
2023-01-10T02:49:16.006Z,100.00
2023-01-10T02:51:44.582Z,100.00
2023-01-10T02:54:18.377Z,100.00
2023-01-10T02:56:48.046Z,100.00
2023-01-10T02:59:27.986Z,100.00
2023-01-10T03:02:32.316Z,100.00
2023-01-10T03:05:18.498Z,100.00
2023-01-10T03:07:54.445Z,100.00
2023-01-10T03:10:42.969Z,100.00
2023-01-10T03:13:32.066Z,100.00
2023-01-10T03:16:00.771Z,100.00
2023-01-10T03:18:32.864Z,100.00
2023-01-10T03:21:03.399Z,100.00
2023-01-10T03:23:33.761Z,100.00
2023-01-10T03:26:02.444Z,100.00
2023-01-10T03:28:35.361Z,100.00
2023-01-10T03:31:27.345Z,100.00
2023-01-10T03:33:55.096Z,100.00
2023-01-10T03:36:37.596Z,100.00
2023-01-10T03:39:27.461Z,100.00
2023-01-10T03:42:08.160Z,100.00
2023-01-10T03:44:55.348Z,100.00
2023-01-10T03:47:41.072Z,100.00
2023-01-10T03:50:23.135Z,100.00
2023-01-10T03:52:49.952Z,100.00
2023-01-10T03:55:23.000Z,100.00
2023-01-10T03:57:49.905Z,100.00
2023-01-10T04:00:17.742Z,100.00
2023-01-10T04:02:44.939Z,100.00
2023-01-10T04:05:12.222Z,100.00
2023-01-10T04:07:39.185Z,100.00
2023-01-10T04:10:07.264Z,100.00
2023-01-10T04:12:33.992Z,100.00
2023-01-10T04:15:02.491Z,100.00
2023-01-10T04:17:29.240Z,100.00
2023-01-10T04:19:56.030Z,100.00
2023-01-10T04:22:22.747Z,100.00
2023-01-10T04:24:51.840Z,100.00
2023-01-10T04:27:18.833Z,100.00
2023-01-10T04:29:45.857Z,100.00
2023-01-10T04:32:13.073Z,100.00
2023-01-10T04:34:39.828Z,100.00
2023-01-10T04:37:06.656Z,100.00
2023-01-10T04:39:33.416Z,100.00
2023-01-10T04:42:00.161Z,100.00
2023-01-10T04:44:26.936Z,100.00
2023-01-10T04:46:53.748Z,100.00
2023-01-10T04:49:20.524Z,100.00
2023-01-10T04:51:47.321Z,100.00
2023-01-10T04:54:14.102Z,100.00
2023-01-10T04:56:40.846Z,100.00
2023-01-10T04:59:10.274Z,100.00
2023-01-10T05:01:39.299Z,100.00
2023-01-10T05:04:06.750Z,100.00
2023-01-10T05:06:33.622Z,100.00
2023-01-10T05:09:00.335Z,100.00
2023-01-10T05:11:27.318Z,100.00
2023-01-10T05:13:54.111Z,100.00
2023-01-10T05:16:21.058Z,100.00
2023-01-10T05:18:48.262Z,100.00
2023-01-10T05:21:15.048Z,100.00
2023-01-10T05:23:41.972Z,100.00
2023-01-10T05:26:14.609Z,100.00
2023-01-10T05:28:41.692Z,100.00
2023-01-10T05:31:11.299Z,100.00
2023-01-10T05:33:38.573Z,100.00
2023-01-10T05:36:06.921Z,100.00
2023-01-10T05:38:33.995Z,100.00
2023-01-10T05:41:01.475Z,100.00
2023-01-10T05:43:28.472Z,100.00
2023-01-10T05:45:55.987Z,100.00
2023-01-10T05:48:23.411Z,100.00
2023-01-10T05:50:51.883Z,100.00
2023-01-10T05:53:19.703Z,100.00
2023-01-10T05:55:57.499Z,100.00
2023-01-10T05:58:27.916Z,100.00
2023-01-10T06:00:56.493Z,100.00
2023-01-10T06:03:24.941Z,100.00
2023-01-10T06:05:51.783Z,100.00
2023-01-10T06:08:19.832Z,100.00
2023-01-10T06:10:46.743Z,100.00
2023-01-10T06:13:15.161Z,100.00
2023-01-10T06:15:42.868Z,100.00
2023-01-10T06:18:12.060Z,100.00
2023-01-10T06:20:40.229Z,100.00
2023-01-10T06:23:07.062Z,100.00
2023-01-10T06:25:40.663Z,100.00
2023-01-10T06:28:08.719Z,100.00
2023-01-10T06:30:35.503Z,100.00
2023-01-10T06:33:04.392Z,100.00
2023-01-10T06:35:31.586Z,100.00
2023-01-10T06:37:59.580Z,100.00
2023-01-10T06:40:28.354Z,100.00
2023-01-10T06:42:55.420Z,100.00
2023-01-10T06:45:22.188Z,100.00
2023-01-10T06:47:48.920Z,100.00
2023-01-10T06:50:15.819Z,100.00
2023-01-10T06:52:42.966Z,100.00
2023-01-10T06:55:12.007Z,100.00
2023-01-10T06:57:38.831Z,100.00
2023-01-10T07:00:07.696Z,100.00
2023-01-10T07:02:34.708Z,100.00
2023-01-10T07:05:01.685Z,100.00
2023-01-10T07:07:28.728Z,100.00
2023-01-10T07:09:55.884Z,100.00
2023-01-10T07:12:22.647Z,100.00
2023-01-10T07:14:49.379Z,100.00
2023-01-10T07:17:16.298Z,100.00
2023-01-10T07:19:43.038Z,100.00
2023-01-10T07:22:09.774Z,100.00
2023-01-10T07:24:36.572Z,100.00
2023-01-10T07:27:03.522Z,100.00
2023-01-10T07:29:30.347Z,100.00
2023-01-10T07:31:57.435Z,100.00
2023-01-10T07:34:24.191Z,100.00
2023-01-10T07:36:50.987Z,100.00
2023-01-10T07:39:17.734Z,100.00
2023-01-10T07:41:46.759Z,100.00
2023-01-10T07:44:13.542Z,100.00
2023-01-10T07:46:40.377Z,100.00
2023-01-10T07:49:07.261Z,100.00
2023-01-10T07:51:34.276Z,100.00
2023-01-10T07:54:01.554Z,100.00
2023-01-10T07:56:28.337Z,100.00
2023-01-10T07:58:55.124Z,100.00
2023-01-10T08:01:22.227Z,100.00
2023-01-10T08:03:49.034Z,100.00
2023-01-10T08:06:16.859Z,100.00
2023-01-10T08:08:46.705Z,100.00
2023-01-10T08:11:13.543Z,100.00
2023-01-10T08:13:40.536Z,100.00
2023-01-10T08:16:09.469Z,100.00
2023-01-10T08:18:36.497Z,100.00
2023-01-10T08:21:03.303Z,100.00
2023-01-10T08:23:30.126Z,100.00
2023-01-10T08:25:58.462Z,100.00
2023-01-10T08:28:25.138Z,100.00
2023-01-10T08:30:55.570Z,100.00
2023-01-10T08:33:23.909Z,100.00
2023-01-10T08:35:51.099Z,100.00
2023-01-10T08:38:17.943Z,100.00
2023-01-10T08:40:44.761Z,100.00
2023-01-10T08:43:15.043Z,100.00
2023-01-10T08:45:42.043Z,100.00
2023-01-10T08:48:10.109Z,100.00
2023-01-10T08:50:36.933Z,100.00
2023-01-10T08:53:04.073Z,100.00
2023-01-10T08:55:31.641Z,100.00
2023-01-10T08:58:02.610Z,100.00
2023-01-10T09:00:30.215Z,100.00
2023-01-10T09:02:57.733Z,100.00
2023-01-10T09:05:28.130Z,100.00
2023-01-10T09:08:00.777Z,100.00
2023-01-10T09:10:28.796Z,100.00
2023-01-10T09:12:59.546Z,100.00
2023-01-10T09:15:29.427Z,100.00
2023-01-10T09:17:58.293Z,100.00
2023-01-10T09:20:26.340Z,100.00
2023-01-10T09:22:53.469Z,100.00
2023-01-10T09:25:21.443Z,100.00
2023-01-10T09:27:48.667Z,100.00
2023-01-10T09:30:15.958Z,100.00
2023-01-10T09:32:42.663Z,100.00
2023-01-10T09:35:09.443Z,99.07
2023-01-10T09:37:38.108Z,97.11
2023-01-10T09:40:06.365Z,96.29
2023-01-10T09:43:00.484Z,95.44
2023-01-10T09:45:46.016Z,94.70
2023-01-10T09:48:24.201Z,95.02
2023-01-10T09:50:57.490Z,91.80
2023-01-10T09:53:28.154Z,89.86
2023-01-10T09:56:00.920Z,90.57
2023-01-10T09:58:31.180Z,91.35
2023-01-10T10:01:00.771Z,90.46
2023-01-10T10:03:43.328Z,90.47
2023-01-10T10:06:13.111Z,89.65
2023-01-10T10:08:41.955Z,89.34
2023-01-10T10:11:19.187Z,89.23
2023-01-10T10:13:55.749Z,89.74
2023-01-10T10:17:00.128Z,88.81
2023-01-10T10:19:54.964Z,89.06
2023-01-10T10:22:44.371Z,88.94
2023-01-10T10:25:36.032Z,90.48
2023-01-10T10:28:31.809Z,90.40
2023-01-10T10:31:30.135Z,90.77
2023-01-10T10:34:03.779Z,91.45
2023-01-10T10:36:42.546Z,92.10
2023-01-10T10:39:16.707Z,91.15
2023-01-10T10:41:47.860Z,90.62
2023-01-10T10:44:33.633Z,89.70
2023-01-10T10:47:00.942Z,89.56
2023-01-10T10:49:38.657Z,92.03
2023-01-10T10:52:17.536Z,91.90
2023-01-10T10:54:46.932Z,92.28
2023-01-10T10:57:14.505Z,93.86
2023-01-10T10:59:44.672Z,93.85
2023-01-10T11:02:28.842Z,93.08
2023-01-10T11:04:59.940Z,91.11
2023-01-10T11:07:32.696Z,89.88
2023-01-10T11:10:08.557Z,88.81
2023-01-10T11:12:38.521Z,89.03
2023-01-10T11:15:05.755Z,89.31
2023-01-10T11:17:34.419Z,85.84
2023-01-10T11:20:04.458Z,83.36
2023-01-10T11:22:39.627Z,83.61
2023-01-10T11:25:15.764Z,81.46
2023-01-10T11:28:01.618Z,80.24
2023-01-10T11:30:31.767Z,78.39
2023-01-10T11:33:01.821Z,77.70
2023-01-10T11:35:30.590Z,77.05
2023-01-10T11:38:06.831Z,76.08
2023-01-10T11:40:37.778Z,76.12
2023-01-10T11:43:29.923Z,77.50
2023-01-10T11:46:04.024Z,76.72
2023-01-10T11:49:08.030Z,75.31
2023-01-10T11:51:44.850Z,74.49
2023-01-10T11:54:17.615Z,74.14
2023-01-10T11:56:55.376Z,74.97
2023-01-10T11:59:23.340Z,76.42
2023-01-10T12:01:57.241Z,75.98
2023-01-10T12:04:25.562Z,74.78
2023-01-10T12:07:02.837Z,76.00
2023-01-10T12:09:36.329Z,75.18
2023-01-10T12:12:05.515Z,75.40
2023-01-10T12:14:32.388Z,75.54
2023-01-10T12:17:02.275Z,75.28
2023-01-10T12:19:29.635Z,76.16
2023-01-10T12:22:02.791Z,74.95
2023-01-10T12:24:35.802Z,75.38
2023-01-10T12:27:04.659Z,73.22
2023-01-10T12:30:02.504Z,74.00
2023-01-10T12:32:38.335Z,74.27
2023-01-10T12:35:12.014Z,73.38
2023-01-10T12:37:59.080Z,72.25
2023-01-10T12:40:43.585Z,72.61
2023-01-10T12:43:36.510Z,71.27
2023-01-10T12:46:33.682Z,71.29
2023-01-10T12:49:38.850Z,70.93
2023-01-10T12:52:12.484Z,70.71
2023-01-10T12:54:39.256Z,70.58
2023-01-10T12:57:32.558Z,70.88
2023-01-10T13:00:04.290Z,70.05
2023-01-10T13:02:40.008Z,70.65
2023-01-10T13:05:18.379Z,70.56
2023-01-10T13:07:47.345Z,71.47
2023-01-10T13:10:21.500Z,71.63
2023-01-10T13:12:59.062Z,71.10
2023-01-10T13:15:32.776Z,70.40
2023-01-10T13:18:04.745Z,70.57
2023-01-10T13:20:40.465Z,70.27
2023-01-10T13:23:30.517Z,70.46
2023-01-10T13:26:01.621Z,69.26
2023-01-10T13:28:30.504Z,70.58
2023-01-10T13:31:01.340Z,69.11
2023-01-10T13:33:36.082Z,68.57
2023-01-10T13:36:16.326Z,68.72
2023-01-10T13:38:58.750Z,68.53
2023-01-10T13:42:15.950Z,67.99
2023-01-10T13:45:01.197Z,68.37
2023-01-10T13:47:40.187Z,68.49
2023-01-10T13:50:49.908Z,67.98
2023-01-10T13:53:19.786Z,68.68
2023-01-10T13:55:49.782Z,68.43
2023-01-10T13:58:16.451Z,68.48
2023-01-10T14:01:11.165Z,68.25
2023-01-10T14:03:50.801Z,68.54
2023-01-10T14:06:40.910Z,68.70
2023-01-10T14:09:13.913Z,69.38
2023-01-10T14:11:55.916Z,69.44
2023-01-10T14:14:28.764Z,69.48
2023-01-10T14:17:09.152Z,69.46
2023-01-10T14:19:48.637Z,68.98
2023-01-10T14:22:26.219Z,69.25
2023-01-10T14:24:54.330Z,69.63
2023-01-10T14:27:23.038Z,69.13
2023-01-10T14:29:57.830Z,69.17
2023-01-10T14:32:38.257Z,69.88
2023-01-10T14:35:08.445Z,70.40
2023-01-10T14:37:44.960Z,70.14
2023-01-10T14:40:43.195Z,69.90
2023-01-10T14:43:15.645Z,70.84
2023-01-10T14:46:06.194Z,71.37
2023-01-10T14:48:41.953Z,71.45
2023-01-10T14:51:24.135Z,72.72
2023-01-10T14:54:07.246Z,71.56
2023-01-10T14:56:38.831Z,72.29
2023-01-10T14:59:27.546Z,73.39
2023-01-10T15:02:14.611Z,73.88
2023-01-10T15:04:53.135Z,73.88
2023-01-10T15:07:25.251Z,74.97
2023-01-10T15:09:58.867Z,74.87
2023-01-10T15:12:27.764Z,74.71
2023-01-10T15:15:15.485Z,75.39
2023-01-10T15:17:43.977Z,75.67
2023-01-10T15:20:21.763Z,75.68
2023-01-10T15:22:59.223Z,75.50
2023-01-10T15:25:32.212Z,76.15
2023-01-10T15:28:02.967Z,76.18
2023-01-10T15:30:37.531Z,75.73
2023-01-10T15:33:17.138Z,76.27
2023-01-10T15:35:46.949Z,76.96
2023-01-10T15:38:17.496Z,77.09
2023-01-10T15:40:46.443Z,77.31
2023-01-10T15:43:34.877Z,77.22
2023-01-10T15:46:05.271Z,77.53
2023-01-10T15:48:59.124Z,78.02
2023-01-10T15:51:33.722Z,78.27
2023-01-10T15:54:04.787Z,78.22
2023-01-10T15:56:40.980Z,78.69
2023-01-10T15:59:30.169Z,79.27
2023-01-10T16:02:05.209Z,79.33
2023-01-10T16:04:36.566Z,78.99
2023-01-10T16:07:24.251Z,79.66
2023-01-10T16:10:22.056Z,81.39
2023-01-10T16:13:07.380Z,81.34
2023-01-10T16:15:37.995Z,81.63
2023-01-10T16:18:04.958Z,82.43
2023-01-10T16:20:38.052Z,82.75
2023-01-10T16:23:08.742Z,82.84
2023-01-10T16:25:44.933Z,83.03
2023-01-10T16:28:14.270Z,84.39
2023-01-10T16:30:45.277Z,84.55
2023-01-10T16:33:17.663Z,84.68
2023-01-10T16:35:46.165Z,82.98
2023-01-10T16:38:13.670Z,82.89
2023-01-10T16:40:42.752Z,83.80
2023-01-10T16:43:18.626Z,83.55
2023-01-10T16:45:46.463Z,84.80
2023-01-10T16:48:14.735Z,85.25
2023-01-10T16:50:42.568Z,85.60
2023-01-10T16:53:15.281Z,86.16
2023-01-10T16:55:52.997Z,85.37
2023-01-10T16:58:20.666Z,85.92
2023-01-10T17:00:51.574Z,85.65
2023-01-10T17:03:23.443Z,85.85
2023-01-10T17:05:50.480Z,83.47
2023-01-10T17:08:20.794Z,81.28
2023-01-10T17:10:52.320Z,81.52
2023-01-10T17:13:27.167Z,82.08
2023-01-10T17:15:53.972Z,80.87
2023-01-10T17:18:20.860Z,81.10
2023-01-10T17:20:48.808Z,81.82
2023-01-10T17:23:15.690Z,81.99
2023-01-10T17:25:43.031Z,81.59
2023-01-10T17:28:11.600Z,81.67
2023-01-10T17:30:42.889Z,81.15
2023-01-10T17:33:13.216Z,81.33
2023-01-10T17:35:44.925Z,81.61
2023-01-10T17:38:14.680Z,82.30
2023-01-10T17:40:45.110Z,82.24
2023-01-10T17:43:13.589Z,81.95
2023-01-10T17:45:41.463Z,81.90
2023-01-10T17:48:09.268Z,82.91
2023-01-10T17:50:36.524Z,83.23
2023-01-10T17:53:03.281Z,82.78
2023-01-10T17:55:30.076Z,82.96
2023-01-10T17:57:57.041Z,82.14
2023-01-10T18:00:24.246Z,82.22
2023-01-10T18:02:51.128Z,82.61
2023-01-10T18:05:18.060Z,83.07
2023-01-10T18:07:44.879Z,83.96
2023-01-10T18:10:11.856Z,84.49
2023-01-10T18:12:38.633Z,83.33
2023-01-10T18:15:06.165Z,83.83
2023-01-10T18:17:33.444Z,83.75
2023-01-10T18:20:00.287Z,83.78
2023-01-10T18:22:45.635Z,84.12
2023-01-10T18:25:18.288Z,83.94
2023-01-10T18:27:50.045Z,84.37
2023-01-10T18:30:22.612Z,84.07
2023-01-10T18:32:51.123Z,84.28
2023-01-10T18:35:18.663Z,84.33
2023-01-10T18:37:45.737Z,84.13
2023-01-10T18:40:15.516Z,83.99
2023-01-10T18:42:43.167Z,83.84
2023-01-10T18:45:10.607Z,83.51
2023-01-10T18:47:37.640Z,83.87
2023-01-10T18:50:05.206Z,83.92
2023-01-10T18:52:32.142Z,84.01
2023-01-10T18:55:00.903Z,84.36
2023-01-10T18:57:32.521Z,83.95
2023-01-10T18:59:59.343Z,83.08
2023-01-10T19:02:26.257Z,83.82
2023-01-10T19:05:09.727Z,83.68
2023-01-10T19:07:37.197Z,83.61
2023-01-10T19:10:04.793Z,84.11
2023-01-10T19:12:31.695Z,84.15
2023-01-10T19:15:00.907Z,84.05
2023-01-10T19:17:29.563Z,84.53
2023-01-10T19:19:57.187Z,84.64
2023-01-10T19:22:24.317Z,85.18
2023-01-10T19:24:51.547Z,85.72
2023-01-10T19:27:18.505Z,85.39
2023-01-10T19:29:48.524Z,86.02
2023-01-10T19:32:15.918Z,86.31
2023-01-10T19:34:44.817Z,86.36
2023-01-10T19:37:13.290Z,87.41
2023-01-10T19:39:40.236Z,85.55
2023-01-10T19:42:07.025Z,86.30
2023-01-10T19:44:37.429Z,86.30
2023-01-10T19:47:04.506Z,85.82
2023-01-10T19:49:35.922Z,85.42
2023-01-10T19:52:04.654Z,85.44
2023-01-10T19:54:31.566Z,85.85
2023-01-10T19:57:09.609Z,85.91
2023-01-10T19:59:51.838Z,85.03
2023-01-10T20:02:19.489Z,85.31
2023-01-10T20:04:46.513Z,85.43
2023-01-10T20:07:18.662Z,86.20
2023-01-10T20:09:45.711Z,85.91
2023-01-10T20:12:22.302Z,85.91
2023-01-10T20:14:57.630Z,85.67
2023-01-10T20:17:24.825Z,85.35
2023-01-10T20:19:51.710Z,85.66
2023-01-10T20:22:28.336Z,85.75
2023-01-10T20:25:09.576Z,85.76
2023-01-10T20:27:40.221Z,85.33
2023-01-10T20:30:14.107Z,85.61
2023-01-10T20:32:43.845Z,85.52
2023-01-10T20:35:11.791Z,85.42
2023-01-10T20:38:03.661Z,86.57
2023-01-10T20:40:58.859Z,86.82
2023-01-10T20:43:26.271Z,88.62
2023-01-10T20:46:26.371Z,88.86
2023-01-10T20:49:02.362Z,90.37
2023-01-10T20:51:36.338Z,91.27
2023-01-10T20:54:08.428Z,90.90
2023-01-10T20:56:41.722Z,91.49
2023-01-10T20:59:13.395Z,91.42
2023-01-10T21:01:41.208Z,92.55
2023-01-10T21:04:08.149Z,92.23
2023-01-10T21:06:35.805Z,92.29
2023-01-10T21:09:21.169Z,92.61
2023-01-10T21:12:02.034Z,91.83
2023-01-10T21:14:34.047Z,92.42
2023-01-10T21:17:00.770Z,91.68
2023-01-10T21:19:27.593Z,92.00
2023-01-10T21:21:59.167Z,91.95
2023-01-10T21:24:26.007Z,92.35
2023-01-10T21:27:03.358Z,92.68
2023-01-10T21:29:33.492Z,94.33
2023-01-10T21:32:00.488Z,94.26
2023-01-10T21:34:27.310Z,96.51
2023-01-10T21:36:54.450Z,95.95
2023-01-10T21:39:21.215Z,97.76
2023-01-10T21:42:09.656Z,98.05
2023-01-10T21:44:36.778Z,97.54
2023-01-10T21:47:06.663Z,97.93
2023-01-10T21:49:51.288Z,98.34
2023-01-10T21:52:18.152Z,99.38
2023-01-10T21:54:47.275Z,99.84
2023-01-10T21:57:14.154Z,100.00
2023-01-10T21:59:41.697Z,100.00
2023-01-10T22:02:12.361Z,100.00
2023-01-10T22:04:39.072Z,99.44
2023-01-10T22:07:08.398Z,99.49
2023-01-10T22:09:36.386Z,99.31
2023-01-10T22:12:03.464Z,98.93
2023-01-10T22:14:30.221Z,99.31
2023-01-10T22:16:57.014Z,99.98
2023-01-10T22:19:23.921Z,98.15
2023-01-10T22:21:51.528Z,97.48
2023-01-10T22:24:18.289Z,97.18
2023-01-10T22:26:45.303Z,97.61
2023-01-10T22:29:12.018Z,97.41
2023-01-10T22:31:41.129Z,96.74
2023-01-10T22:34:08.154Z,96.92
2023-01-10T22:36:34.899Z,96.76
2023-01-10T22:39:01.588Z,97.06
2023-01-10T22:41:29.080Z,97.37
2023-01-10T22:43:56.540Z,97.52
2023-01-10T22:46:23.672Z,97.63
2023-01-10T22:48:50.620Z,97.53
2023-01-10T22:51:18.794Z,97.70
2023-01-10T22:53:50.481Z,97.96
2023-01-10T22:56:17.538Z,98.34
2023-01-10T22:58:47.954Z,98.27
2023-01-10T23:01:16.883Z,98.77
2023-01-10T23:03:44.734Z,98.66
2023-01-10T23:06:13.312Z,98.91
2023-01-10T23:08:41.954Z,99.36
2023-01-10T23:11:09.976Z,98.88
2023-01-10T23:13:36.787Z,98.90
2023-01-10T23:16:09.618Z,98.62
2023-01-10T23:18:36.546Z,98.59
2023-01-10T23:21:03.986Z,98.23
2023-01-10T23:23:30.966Z,97.56
2023-01-10T23:26:09.439Z,97.81
2023-01-10T23:28:38.825Z,97.34
2023-01-10T23:31:08.421Z,97.32
2023-01-10T23:33:35.466Z,97.34
2023-01-10T23:36:03.115Z,97.19
2023-01-10T23:38:30.360Z,97.04
2023-01-10T23:40:57.503Z,97.05
2023-01-10T23:43:25.274Z,97.29
2023-01-10T23:45:52.767Z,97.65
2023-01-10T23:48:19.995Z,97.40
2023-01-10T23:50:49.142Z,97.55
2023-01-10T23:53:16.463Z,97.43
2023-01-10T23:55:43.181Z,97.55
2023-01-10T23:58:10.079Z,97.45
